createdAt,value
2023-01-17T00:02:05.920Z,1.33
2023-01-17T00:04:52.122Z,1.67
2023-01-17T00:07:40.785Z,2.60
2023-01-17T00:10:11.453Z,1.50
2023-01-17T00:12:39.805Z,2.30
2023-01-17T00:15:11.240Z,1.80
2023-01-17T00:17:39.920Z,1.90
2023-01-17T00:20:27.273Z,2.23
2023-01-17T00:23:12.939Z,3.27
2023-01-17T00:25:59.586Z,3.60
2023-01-17T00:28:27.506Z,3.97
2023-01-17T00:30:56.033Z,4.13
2023-01-17T00:33:24.441Z,5.17
2023-01-17T00:35:53.955Z,4.03
2023-01-17T00:38:23.228Z,3.23
2023-01-17T00:40:50.741Z,4.13
2023-01-17T00:43:39.644Z,3.80
2023-01-17T00:46:27.476Z,2.63
2023-01-17T00:49:13.590Z,3.37
2023-01-17T00:51:59.129Z,3.40
2023-01-17T00:54:44.950Z,3.50
2023-01-17T00:57:31.048Z,3.27
2023-01-17T01:00:17.110Z,3.43
2023-01-17T01:03:04.907Z,3.17
2023-01-17T01:05:50.437Z,3.20
2023-01-17T01:08:38.914Z,2.50
2023-01-17T01:11:26.731Z,2.20
2023-01-17T01:14:13.320Z,2.17
2023-01-17T01:16:59.844Z,2.00
2023-01-17T01:19:47.677Z,1.27
2023-01-17T01:22:33.912Z,1.63
2023-01-17T01:25:19.648Z,1.27
2023-01-17T01:28:05.721Z,1.60
2023-01-17T01:30:51.542Z,1.33
2023-01-17T01:33:18.813Z,1.63
2023-01-17T01:35:49.941Z,1.27
2023-01-17T01:38:18.650Z,0.90
2023-01-17T01:40:48.699Z,1.03
2023-01-17T01:43:19.865Z,1.00
2023-01-17T01:45:52.791Z,0.87
2023-01-17T01:48:34.925Z,1.00
2023-01-17T01:51:09.588Z,1.33
2023-01-17T01:53:41.958Z,1.00
2023-01-17T01:56:13.926Z,0.90
2023-01-17T01:58:44.852Z,1.00
2023-01-17T02:01:14.370Z,0.80
2023-01-17T02:03:43.596Z,1.20
2023-01-17T02:06:27.064Z,1.00
2023-01-17T02:08:57.126Z,0.80
2023-01-17T02:11:25.545Z,0.53
2023-01-17T02:13:54.002Z,0.70
2023-01-17T02:16:34.777Z,0.60
2023-01-17T02:19:21.830Z,1.10
2023-01-17T02:22:08.693Z,0.63
2023-01-17T02:25:04.516Z,0.90
2023-01-17T02:27:45.044Z,1.00
2023-01-17T02:30:40.583Z,0.77
2023-01-17T02:33:24.036Z,1.00
2023-01-17T02:36:04.384Z,0.93
2023-01-17T02:38:41.410Z,1.37
2023-01-17T02:41:17.585Z,1.10
2023-01-17T02:43:46.441Z,1.20
2023-01-17T02:46:16.480Z,1.50
2023-01-17T02:48:47.032Z,1.80
2023-01-17T02:51:41.565Z,1.73
2023-01-17T02:54:25.120Z,2.10
2023-01-17T02:57:04.601Z,2.20
2023-01-17T02:59:42.146Z,2.03
2023-01-17T03:02:22.980Z,2.70
2023-01-17T03:04:56.720Z,3.07
2023-01-17T03:07:28.452Z,2.57
2023-01-17T03:10:00.599Z,2.70
2023-01-17T03:12:29.923Z,3.13
2023-01-17T03:14:58.461Z,3.13
2023-01-17T03:17:32.883Z,3.27
2023-01-17T03:20:01.165Z,2.47
2023-01-17T03:22:29.573Z,2.50
2023-01-17T03:24:57.883Z,2.63
2023-01-17T03:27:26.217Z,2.20
2023-01-17T03:29:54.533Z,2.20
2023-01-17T03:32:22.913Z,2.40
2023-01-17T03:34:52.671Z,2.50
2023-01-17T03:37:21.224Z,2.13
2023-01-17T03:39:49.570Z,2.50
2023-01-17T03:42:17.939Z,2.63
2023-01-17T03:44:46.397Z,2.03
2023-01-17T03:47:14.689Z,2.63
2023-01-17T03:49:43.230Z,2.23
2023-01-17T03:52:13.077Z,3.23
2023-01-17T03:54:42.209Z,2.27
2023-01-17T03:57:12.580Z,2.40
2023-01-17T03:59:40.916Z,2.27
2023-01-17T04:02:09.430Z,2.20
2023-01-17T04:04:37.864Z,1.83
2023-01-17T04:07:06.417Z,2.37
2023-01-17T04:09:36.074Z,2.20
2023-01-17T04:12:04.659Z,2.07
2023-01-17T04:14:33.001Z,2.30
2023-01-17T04:17:01.535Z,3.10
2023-01-17T04:19:37.308Z,3.20
2023-01-17T04:22:05.937Z,3.50
2023-01-17T04:24:35.947Z,3.43
2023-01-17T04:27:05.550Z,3.40
2023-01-17T04:29:34.177Z,3.80
2023-01-17T04:32:02.824Z,3.57
2023-01-17T04:34:31.150Z,3.80
2023-01-17T04:36:59.482Z,3.60
2023-01-17T04:39:27.781Z,3.73
2023-01-17T04:41:57.769Z,3.60
2023-01-17T04:44:26.119Z,4.30
2023-01-17T04:46:54.444Z,4.67
2023-01-17T04:49:22.794Z,4.50
2023-01-17T04:51:51.274Z,3.97
2023-01-17T04:54:19.666Z,4.37
2023-01-17T04:56:49.101Z,4.77
2023-01-17T04:59:18.861Z,5.37
2023-01-17T05:01:49.536Z,6.63
2023-01-17T05:04:18.275Z,6.33
2023-01-17T05:06:46.572Z,7.10
2023-01-17T05:09:14.846Z,7.93
2023-01-17T05:11:43.093Z,8.83
2023-01-17T05:14:12.111Z,8.20
2023-01-17T05:16:41.855Z,8.93
2023-01-17T05:19:10.214Z,9.27
2023-01-17T05:21:38.498Z,9.67
2023-01-17T05:24:07.536Z,9.33
2023-01-17T05:26:35.855Z,10.50
2023-01-17T05:29:04.285Z,10.20
2023-01-17T05:31:32.584Z,10.27
2023-01-17T05:34:02.381Z,10.60
2023-01-17T05:36:30.745Z,11.57
2023-01-17T05:38:59.076Z,11.33
2023-01-17T05:41:27.473Z,12.47
2023-01-17T05:43:55.939Z,11.57
2023-01-17T05:46:24.377Z,11.27
2023-01-17T05:48:54.191Z,12.83
2023-01-17T05:51:24.879Z,11.80
2023-01-17T05:53:53.452Z,12.50
2023-01-17T05:56:21.789Z,12.93
2023-01-17T05:58:50.276Z,12.23
2023-01-17T06:01:19.676Z,12.00
2023-01-17T06:03:48.163Z,14.03
2023-01-17T06:06:16.586Z,13.17
2023-01-17T06:08:46.363Z,13.77
2023-01-17T06:11:15.173Z,13.83
2023-01-17T06:13:43.458Z,15.33
2023-01-17T06:16:11.884Z,13.07
2023-01-17T06:18:40.282Z,13.83
2023-01-17T06:21:08.579Z,13.67
2023-01-17T06:23:37.125Z,13.20
2023-01-17T06:26:09.174Z,13.27
2023-01-17T06:28:37.881Z,12.87
2023-01-17T06:31:10.219Z,13.67
2023-01-17T06:33:38.572Z,12.73
2023-01-17T06:36:07.559Z,12.67
2023-01-17T06:38:36.333Z,11.23
2023-01-17T06:41:07.141Z,13.60
2023-01-17T06:43:36.114Z,13.30
2023-01-17T06:46:04.518Z,12.50
2023-01-17T06:48:32.932Z,12.73
2023-01-17T06:51:02.056Z,12.73
2023-01-17T06:53:30.328Z,12.17
2023-01-17T06:55:58.753Z,12.10
2023-01-17T06:58:28.447Z,12.67
2023-01-17T07:00:56.844Z,11.93
2023-01-17T07:03:27.262Z,12.03
2023-01-17T07:05:56.170Z,11.87
2023-01-17T07:08:24.561Z,13.37
2023-01-17T07:10:52.824Z,12.77
2023-01-17T07:13:21.105Z,12.73
2023-01-17T07:15:50.878Z,12.73
2023-01-17T07:18:23.106Z,12.93
2023-01-17T07:20:52.120Z,13.37
2023-01-17T07:23:21.866Z,13.37
2023-01-17T07:25:53.079Z,13.23
2023-01-17T07:28:21.874Z,12.63
2023-01-17T07:30:53.238Z,13.13
2023-01-17T07:33:22.368Z,14.57
2023-01-17T07:35:50.688Z,14.00
2023-01-17T07:38:20.699Z,12.93
2023-01-17T07:40:49.105Z,14.40
2023-01-17T07:43:17.521Z,15.37
2023-01-17T07:45:49.597Z,15.73
2023-01-17T07:48:20.731Z,14.80
2023-01-17T07:50:53.793Z,15.20
2023-01-17T07:53:25.345Z,14.13
2023-01-17T07:55:54.139Z,14.40
2023-01-17T07:58:23.230Z,15.23
2023-01-17T08:00:51.827Z,15.20
2023-01-17T08:03:21.654Z,15.93
2023-01-17T08:05:56.262Z,14.93
2023-01-17T08:08:24.758Z,15.03
2023-01-17T08:10:53.624Z,16.23
2023-01-17T08:13:22.124Z,16.33
2023-01-17T08:15:50.854Z,15.80
2023-01-17T08:18:19.411Z,16.87
2023-01-17T08:20:49.121Z,14.33
2023-01-17T08:23:17.406Z,16.40
2023-01-17T08:25:46.016Z,16.83
2023-01-17T08:28:16.002Z,16.40
2023-01-17T08:30:44.530Z,16.43
2023-01-17T08:33:12.895Z,17.57
2023-01-17T08:35:41.494Z,17.07
2023-01-17T08:38:11.345Z,17.60
2023-01-17T08:40:39.727Z,17.20
2023-01-17T08:43:08.101Z,17.80
2023-01-17T08:45:36.405Z,17.10
2023-01-17T08:48:05.233Z,18.07
2023-01-17T08:50:33.623Z,16.80
2023-01-17T08:53:02.083Z,17.77
2023-01-17T08:55:33.379Z,17.80
2023-01-17T08:58:01.793Z,16.03
2023-01-17T09:00:30.128Z,17.00
2023-01-17T09:02:59.228Z,16.97
2023-01-17T09:05:27.592Z,16.97
2023-01-17T09:07:56.572Z,17.60
2023-01-17T09:10:25.232Z,17.30
2023-01-17T09:12:55.033Z,16.70
2023-01-17T09:15:23.431Z,15.97
2023-01-17T09:17:51.819Z,15.47
2023-01-17T09:20:21.560Z,16.87
2023-01-17T09:22:51.280Z,15.47
2023-01-17T09:25:19.625Z,16.03
2023-01-17T09:27:48.283Z,15.57
2023-01-17T09:30:18.895Z,16.70
2023-01-17T09:32:53.480Z,17.03
2023-01-17T09:35:21.984Z,16.50
2023-01-17T09:37:50.880Z,15.17
2023-01-17T09:40:22.060Z,15.57
2023-01-17T09:42:53.158Z,14.20
2023-01-17T09:45:22.922Z,15.70
2023-01-17T09:47:53.729Z,14.63
2023-01-17T09:50:31.563Z,14.57
2023-01-17T09:53:02.865Z,15.20
2023-01-17T09:55:41.276Z,15.07
2023-01-17T09:58:14.193Z,14.80
2023-01-17T10:00:55.185Z,14.53
2023-01-17T10:03:47.725Z,13.73
2023-01-17T10:06:41.851Z,13.83
2023-01-17T10:09:54.207Z,13.47
2023-01-17T10:12:32.389Z,12.80
2023-01-17T10:15:28.189Z,13.00
2023-01-17T10:18:05.501Z,13.90
2023-01-17T10:20:46.106Z,12.33
2023-01-17T10:23:47.611Z,14.70
2023-01-17T10:26:19.771Z,13.87
2023-01-17T10:28:51.282Z,13.40
2023-01-17T10:31:24.704Z,12.33
2023-01-17T10:33:56.555Z,12.23
2023-01-17T10:36:26.636Z,10.13
2023-01-17T10:38:59.079Z,11.17
2023-01-17T10:41:30.482Z,11.57
2023-01-17T10:44:08.033Z,9.67
2023-01-17T10:46:42.440Z,9.63
2023-01-17T10:49:17.841Z,10.13
2023-01-17T10:52:06.202Z,8.33
2023-01-17T10:54:49.571Z,10.33
2023-01-17T10:57:24.519Z,9.53
2023-01-17T10:59:54.103Z,10.90
2023-01-17T11:02:26.106Z,9.90
2023-01-17T11:04:58.447Z,9.60
2023-01-17T11:07:29.216Z,9.30
2023-01-17T11:09:59.218Z,7.83
2023-01-17T11:12:30.429Z,9.83
2023-01-17T11:15:03.322Z,8.23
2023-01-17T11:17:34.048Z,8.40
2023-01-17T11:20:20.195Z,8.23
2023-01-17T11:23:03.987Z,7.70
2023-01-17T11:25:35.239Z,8.03
2023-01-17T11:28:07.219Z,7.00
2023-01-17T11:30:35.937Z,7.60
2023-01-17T11:33:06.298Z,6.80
2023-01-17T11:35:37.196Z,6.03
2023-01-17T11:38:08.414Z,5.97
2023-01-17T11:40:40.801Z,5.90
2023-01-17T11:43:22.012Z,6.27
2023-01-17T11:46:05.691Z,6.80
2023-01-17T11:48:37.125Z,6.17
2023-01-17T11:51:20.400Z,6.53
2023-01-17T11:53:49.456Z,6.20
2023-01-17T11:56:35.431Z,6.07
2023-01-17T11:59:31.829Z,5.93
2023-01-17T12:02:31.930Z,4.90
2023-01-17T12:05:15.524Z,5.47
2023-01-17T12:07:54.620Z,5.30
2023-01-17T12:10:27.557Z,6.13
2023-01-17T12:13:25.856Z,4.40
2023-01-17T12:16:26.314Z,4.87
2023-01-17T12:19:05.231Z,4.23
2023-01-17T12:21:46.710Z,4.17
2023-01-17T12:24:37.277Z,5.27
2023-01-17T12:27:13.797Z,4.90
2023-01-17T12:29:58.924Z,3.67
2023-01-17T12:32:55.441Z,3.87
2023-01-17T12:35:31.591Z,4.57
2023-01-17T12:38:06.865Z,4.07
2023-01-17T12:40:42.894Z,4.00
2023-01-17T12:43:19.706Z,4.60
2023-01-17T12:45:50.273Z,4.07
2023-01-17T12:48:21.055Z,3.60
2023-01-17T12:50:54.076Z,3.73
2023-01-17T12:53:32.739Z,3.17
2023-01-17T12:56:09.596Z,3.93
2023-01-17T12:58:42.683Z,3.80
2023-01-17T13:01:21.120Z,4.03
2023-01-17T13:04:00.322Z,3.83
2023-01-17T13:06:47.181Z,1.83
2023-01-17T13:09:21.880Z,3.40
2023-01-17T13:11:56.610Z,3.63
2023-01-17T13:14:25.050Z,3.70
2023-01-17T13:16:59.085Z,4.10
2023-01-17T13:19:38.778Z,3.93
2023-01-17T13:22:17.397Z,3.43
2023-01-17T13:24:55.456Z,4.03
2023-01-17T13:27:53.541Z,3.97
2023-01-17T13:30:43.519Z,4.80
2023-01-17T13:33:33.459Z,3.77
2023-01-17T13:36:17.635Z,3.30
2023-01-17T13:39:07.428Z,3.63
2023-01-17T13:41:46.915Z,3.60
2023-01-17T13:44:25.581Z,3.70
2023-01-17T13:47:01.108Z,3.20
2023-01-17T13:49:44.169Z,4.57
2023-01-17T13:52:33.198Z,4.80
2023-01-17T13:55:04.216Z,4.30
2023-01-17T13:57:40.124Z,4.37
2023-01-17T14:00:59.867Z,3.90
2023-01-17T14:04:05.806Z,5.03
2023-01-17T14:06:44.258Z,3.80
2023-01-17T14:09:17.072Z,3.60
2023-01-17T14:12:07.801Z,3.17
2023-01-17T14:14:56.980Z,3.97
2023-01-17T14:17:55.795Z,4.60
2023-01-17T14:21:05.385Z,3.80
2023-01-17T14:24:07.137Z,3.23
2023-01-17T14:26:46.774Z,3.33
2023-01-17T14:29:50.921Z,3.67
2023-01-17T14:32:22.133Z,3.40
2023-01-17T14:34:52.484Z,3.33
2023-01-17T14:37:39.790Z,3.00
2023-01-17T14:40:20.347Z,3.77
2023-01-17T14:42:54.265Z,3.00
2023-01-17T14:45:29.446Z,4.37
2023-01-17T14:47:59.829Z,3.30
2023-01-17T14:50:30.611Z,3.67
2023-01-17T14:53:18.171Z,3.97
2023-01-17T14:55:56.647Z,4.20
2023-01-17T14:58:27.569Z,3.30
2023-01-17T15:01:00.076Z,4.20
2023-01-17T15:03:30.076Z,3.60
2023-01-17T15:06:05.006Z,3.97
2023-01-17T15:08:36.722Z,3.93
2023-01-17T15:11:07.542Z,4.00
2023-01-17T15:13:44.673Z,3.90
2023-01-17T15:16:21.809Z,4.07
2023-01-17T15:18:50.644Z,3.80
2023-01-17T15:21:21.609Z,4.07
2023-01-17T15:23:54.209Z,3.70
2023-01-17T15:26:25.349Z,3.30
2023-01-17T15:28:54.808Z,3.67
2023-01-17T15:31:25.836Z,3.90
2023-01-17T15:33:57.564Z,3.47
2023-01-17T15:36:30.223Z,3.50
2023-01-17T15:39:02.073Z,3.37
2023-01-17T15:41:34.800Z,3.47
2023-01-17T15:44:03.941Z,3.97
2023-01-17T15:46:41.740Z,3.73
2023-01-17T15:49:17.850Z,2.80
2023-01-17T15:51:52.958Z,4.40
2023-01-17T15:54:47.577Z,3.67
2023-01-17T15:57:20.372Z,3.80
2023-01-17T15:59:53.752Z,3.87
2023-01-17T16:02:31.487Z,4.17
2023-01-17T16:05:01.621Z,3.67
2023-01-17T16:07:34.082Z,3.83
2023-01-17T16:10:18.737Z,4.13
2023-01-17T16:12:47.594Z,3.93
2023-01-17T16:15:18.300Z,5.03
2023-01-17T16:17:50.070Z,5.23
2023-01-17T16:20:22.178Z,5.50
2023-01-17T16:22:51.306Z,5.10
2023-01-17T16:25:23.557Z,4.67
2023-01-17T16:27:53.549Z,5.70
2023-01-17T16:30:22.687Z,6.10
2023-01-17T16:32:51.360Z,6.57
2023-01-17T16:35:21.842Z,5.73
2023-01-17T16:37:51.248Z,5.63
2023-01-17T16:40:23.164Z,5.00
2023-01-17T16:42:51.655Z,5.53
2023-01-17T16:45:20.416Z,6.30
2023-01-17T16:47:49.815Z,5.47
2023-01-17T16:50:22.408Z,6.17
2023-01-17T16:52:50.855Z,5.23
2023-01-17T16:55:22.979Z,5.40
2023-01-17T16:57:51.895Z,5.57
2023-01-17T17:00:21.220Z,6.27
2023-01-17T17:02:51.327Z,5.67
2023-01-17T17:05:20.175Z,6.20
2023-01-17T17:07:51.664Z,5.90
2023-01-17T17:10:25.282Z,7.17
2023-01-17T17:12:54.472Z,6.70
2023-01-17T17:15:23.049Z,6.13
2023-01-17T17:17:51.582Z,6.00
2023-01-17T17:20:20.296Z,6.20
2023-01-17T17:22:52.391Z,5.67
2023-01-17T17:25:22.178Z,6.10
2023-01-17T17:27:50.907Z,6.40
2023-01-17T17:30:19.797Z,6.70
2023-01-17T17:32:48.470Z,5.33
2023-01-17T17:35:16.966Z,5.30
2023-01-17T17:37:45.395Z,5.70
2023-01-17T17:40:14.221Z,5.83
2023-01-17T17:42:44.921Z,5.80
2023-01-17T17:45:13.527Z,5.77
2023-01-17T17:47:41.890Z,5.93
2023-01-17T17:50:13.105Z,5.87
2023-01-17T17:52:44.165Z,6.87
2023-01-17T17:55:13.248Z,5.90
2023-01-17T17:57:41.698Z,5.77
2023-01-17T18:00:13.191Z,7.23
2023-01-17T18:02:41.734Z,6.50
2023-01-17T18:05:11.045Z,6.17
2023-01-17T18:07:39.592Z,6.23
2023-01-17T18:10:09.438Z,6.40
2023-01-17T18:12:37.889Z,5.23
2023-01-17T18:15:07.158Z,5.70
2023-01-17T18:17:37.247Z,5.97
2023-01-17T18:20:07.744Z,6.60
2023-01-17T18:22:36.417Z,6.23
2023-01-17T18:25:05.108Z,6.90
2023-01-17T18:27:33.634Z,6.67
2023-01-17T18:30:02.116Z,6.50
2023-01-17T18:32:30.561Z,7.47
2023-01-17T18:35:00.430Z,7.90
2023-01-17T18:37:28.816Z,7.90
2023-01-17T18:39:57.354Z,7.53
2023-01-17T18:42:26.909Z,7.33
2023-01-17T18:44:55.302Z,6.90
2023-01-17T18:47:23.912Z,7.30
2023-01-17T18:49:53.837Z,7.83
2023-01-17T18:52:23.708Z,7.50
2023-01-17T18:54:52.157Z,6.07
2023-01-17T18:57:20.664Z,6.70
2023-01-17T18:59:49.119Z,7.90
2023-01-17T19:02:19.613Z,7.27
2023-01-17T19:04:48.228Z,8.53
2023-01-17T19:07:16.747Z,7.73
2023-01-17T19:09:46.541Z,6.90
2023-01-17T19:12:15.229Z,6.83
2023-01-17T19:14:44.572Z,7.00
2023-01-17T19:17:13.078Z,7.30
2023-01-17T19:19:41.459Z,6.70
2023-01-17T19:22:09.904Z,7.07
2023-01-17T19:24:38.429Z,8.00
2023-01-17T19:27:08.699Z,8.67
2023-01-17T19:29:37.217Z,8.83
2023-01-17T19:32:07.525Z,7.20
2023-01-17T19:34:36.173Z,9.47
2023-01-17T19:37:06.144Z,8.47
2023-01-17T19:39:35.681Z,8.70
2023-01-17T19:42:04.811Z,9.73
2023-01-17T19:44:34.961Z,9.13
2023-01-17T19:47:03.993Z,9.23
2023-01-17T19:49:34.053Z,7.73
2023-01-17T19:52:03.589Z,9.40
2023-01-17T19:54:32.486Z,9.20
2023-01-17T19:57:01.423Z,9.00
2023-01-17T19:59:30.100Z,9.17
2023-01-17T20:02:02.635Z,8.20
2023-01-17T20:04:31.499Z,8.30
2023-01-17T20:07:00.471Z,7.87
2023-01-17T20:09:29.171Z,8.63
2023-01-17T20:11:58.209Z,9.17
2023-01-17T20:14:27.076Z,9.03
2023-01-17T20:16:55.939Z,9.17
2023-01-17T20:19:26.678Z,10.20
2023-01-17T20:21:55.705Z,9.50
2023-01-17T20:24:24.537Z,9.60
2023-01-17T20:26:53.237Z,9.37
2023-01-17T20:29:21.969Z,8.60
2023-01-17T20:31:52.647Z,9.67
2023-01-17T20:34:25.909Z,9.40
2023-01-17T20:36:59.425Z,9.80
2023-01-17T20:39:28.538Z,17.10
2023-01-17T20:41:57.739Z,15.73
2023-01-17T20:44:26.287Z,14.07
2023-01-17T20:46:55.092Z,13.37
2023-01-17T20:49:24.281Z,12.07
2023-01-17T20:51:56.577Z,11.57
2023-01-17T20:54:25.438Z,11.47
2023-01-17T20:56:55.509Z,13.30
2023-01-17T20:59:24.047Z,12.07
2023-01-17T21:01:53.101Z,13.57
2023-01-17T21:04:25.787Z,14.30
2023-01-17T21:06:54.774Z,14.83
2023-01-17T21:09:24.641Z,13.87
2023-01-17T21:11:54.473Z,14.40
2023-01-17T21:14:22.998Z,15.50
2023-01-17T21:16:51.832Z,13.27
2023-01-17T21:19:20.704Z,13.17
2023-01-17T21:21:50.229Z,11.77
2023-01-17T21:24:20.255Z,11.20
2023-01-17T21:26:51.583Z,13.37
2023-01-17T21:29:20.146Z,13.00
2023-01-17T21:31:48.690Z,12.27
2023-01-17T21:34:17.163Z,12.17
2023-01-17T21:36:45.592Z,12.93
2023-01-17T21:39:16.815Z,13.87
2023-01-17T21:41:47.986Z,12.93
2023-01-17T21:44:20.536Z,12.80
2023-01-17T21:46:54.206Z,12.17
2023-01-17T21:49:24.346Z,11.97
2023-01-17T21:52:10.292Z,10.90
2023-01-17T21:54:58.689Z,11.63
2023-01-17T21:57:44.577Z,12.90
2023-01-17T22:00:15.673Z,11.27
2023-01-17T22:02:44.752Z,11.63
2023-01-17T22:05:14.344Z,13.53
2023-01-17T22:08:03.549Z,13.57
2023-01-17T22:10:32.607Z,11.33
2023-01-17T22:13:01.199Z,13.60
2023-01-17T22:15:31.016Z,12.10
2023-01-17T22:17:59.868Z,12.67
2023-01-17T22:20:28.796Z,10.97
2023-01-17T22:22:57.579Z,12.50
2023-01-17T22:25:26.617Z,11.37
2023-01-17T22:27:55.489Z,11.60
2023-01-17T22:30:24.126Z,13.10
2023-01-17T22:32:54.097Z,12.63
2023-01-17T22:35:23.130Z,12.57
2023-01-17T22:37:51.732Z,11.63
2023-01-17T22:40:20.499Z,10.50
2023-01-17T22:42:49.123Z,10.67
2023-01-17T22:45:19.346Z,12.10
2023-01-17T22:47:48.278Z,10.70
2023-01-17T22:50:20.903Z,11.27
2023-01-17T22:52:49.363Z,11.47
2023-01-17T22:55:18.396Z,11.80
2023-01-17T22:57:47.912Z,11.33
2023-01-17T23:00:17.154Z,11.83
2023-01-17T23:02:45.686Z,10.80
2023-01-17T23:05:14.356Z,10.10
2023-01-17T23:07:46.767Z,12.77
2023-01-17T23:10:38.279Z,13.30
2023-01-17T23:13:10.512Z,20.13
2023-01-17T23:15:57.426Z,18.27
2023-01-17T23:18:43.167Z,16.07
2023-01-17T23:21:11.694Z,15.27
2023-01-17T23:23:41.493Z,15.23
2023-01-17T23:26:09.884Z,13.30
2023-01-17T23:28:37.252Z,14.53
2023-01-17T23:31:06.693Z,13.83
2023-01-17T23:33:35.024Z,13.73
2023-01-17T23:36:03.371Z,14.17
2023-01-17T23:38:30.994Z,12.93
2023-01-17T23:41:23.433Z,13.40
2023-01-17T23:43:52.728Z,13.10
2023-01-17T23:46:21.586Z,13.23
2023-01-17T23:48:50.014Z,12.47
2023-01-17T23:51:18.858Z,12.37
2023-01-17T23:53:47.624Z,13.47
2023-01-17T23:56:19.531Z,13.47
2023-01-17T23:58:47.970Z,12.53
